Time;durP1;ratioP1;P1;durP2;ratioP2;P2;SDS_P1;SDS_P2;PMS_P1;PMS_P2;Temp;Humidity;BMP_temperature;BMP_pressure;BME280_temperature;BME280_humidity;BME280_pressure;Samples;Min_cycle;Max_cycle;Signal;HPM_P1;HPM_P2
2020/12/21 00:01:38;;;;;;;2.73;2.53;;;8.20;99.90;;;;;;5052362;28;20183;-84
2020/12/21 00:04:04;;;;;;;2.73;2.53;;;8.20;99.90;;;;;;5053619;28;20645;-84
2020/12/21 00:06:29;;;;;;;2.80;2.60;;;8.10;99.90;;;;;;5053427;28;20501;-84
2020/12/21 00:08:55;;;;;;;2.30;1.83;;;8.10;99.90;;;;;;5053499;28;20251;-84
2020/12/21 00:11:20;;;;;;;2.67;2.47;;;8.10;99.90;;;;;;5053377;28;20668;-84
2020/12/21 00:14:09;;;;;;;2.37;2.17;;;8.10;99.90;;;;;;5131647;27;20353;-85
2020/12/21 00:16:39;;;;;;;3.17;2.87;;;8.10;99.90;;;;;;5130415;28;20415;-86
2020/12/21 00:19:05;;;;;;;2.67;2.50;;;8.10;99.90;;;;;;5132528;28;20485;-85
2020/12/21 00:21:31;;;;;;;3.70;3.40;;;8.00;99.90;;;;;;5130356;27;20419;-84
2020/12/21 00:23:57;;;;;;;3.00;2.80;;;8.00;99.90;;;;;;5130466;27;20422;-86
2020/12/21 00:26:22;;;;;;;3.07;2.87;;;8.00;99.90;;;;;;5131589;28;20180;-85
2020/12/21 00:28:48;;;;;;;3.57;3.27;;;7.90;99.90;;;;;;5131915;27;20172;-85
2020/12/21 00:31:30;;;;;;;2.93;2.73;;;7.90;99.90;;;;;;5130809;27;20180;-84
2020/12/21 00:33:56;;;;;;;3.23;3.03;;;7.80;99.90;;;;;;5131613;27;20177;-84
2020/12/21 00:36:22;;;;;;;2.90;2.70;;;7.80;99.90;;;;;;5131348;27;20410;-85
2020/12/21 00:38:49;;;;;;;3.37;3.07;;;7.90;99.90;;;;;;5130079;27;20922;-84
2020/12/21 00:41:16;;;;;;;3.40;3.10;;;7.90;99.90;;;;;;5129988;28;20809;-85
2020/12/21 00:43:45;;;;;;;3.47;3.17;;;7.90;99.90;;;;;;5129912;27;20427;-85
2020/12/21 00:46:22;;;;;;;3.50;3.20;;;7.80;99.90;;;;;;5130883;28;20411;-85
2020/12/21 00:48:48;;;;;;;3.10;2.70;;;7.80;99.90;;;;;;5131172;27;20399;-84
2020/12/21 00:51:15;;;;;;;3.43;3.13;;;7.80;99.90;;;;;;5129871;28;20763;-85
2020/12/21 00:53:44;;;;;;;3.90;3.60;;;7.90;99.90;;;;;;5129513;28;20470;-84
2020/12/21 00:56:10;;;;;;;3.93;3.63;;;7.90;99.90;;;;;;5131173;27;20399;-84
2020/12/21 00:58:38;;;;;;;3.00;2.80;;;7.90;99.90;;;;;;5131362;27;20418;-84
2020/12/21 01:01:07;;;;;;;3.97;3.13;;;7.90;99.90;;;;;;5131313;27;20411;-86
2020/12/21 01:03:36;;;;;;;4.63;3.33;;;8.00;99.90;;;;;;5131090;27;20869;-85
2020/12/21 01:06:03;;;;;;;3.10;2.90;;;8.00;99.90;;;;;;5129246;27;20446;-85
2020/12/21 01:08:30;;;;;;;3.47;3.00;;;8.00;99.90;;;;;;5130367;27;20906;-85
2020/12/21 01:10:55;;;;;;;4.63;3.60;;;8.00;99.90;;;;;;5130486;27;20431;-85
2020/12/21 01:13:21;;;;;;;3.00;2.70;;;8.00;99.90;;;;;;5130152;28;20482;-84
2020/12/21 01:15:46;;;;;;;7.27;4.10;;;8.00;99.90;;;;;;5128921;28;20169;-86
2020/12/21 01:18:12;;;;;;;3.80;3.47;;;7.90;99.90;;;;;;5128975;27;20181;-85
2020/12/21 01:20:39;;;;;;;4.23;3.30;;;7.90;99.90;;;;;;5130456;28;20166;-85
2020/12/21 01:23:05;;;;;;;4.23;3.67;;;7.90;99.90;;;;;;5130017;27;20532;-85
2020/12/21 01:25:30;;;;;;;4.20;3.80;;;7.90;99.90;;;;;;5115941;28;20411;-84
2020/12/21 01:27:56;;;;;;;3.77;3.47;;;7.80;99.90;;;;;;5116702;28;20188;-86
2020/12/21 01:30:22;;;;;;;3.80;3.50;;;7.80;99.90;;;;;;5115309;28;20174;-86
2020/12/21 01:32:47;;;;;;;3.80;3.50;;;7.70;99.90;;;;;;5116568;28;20213;-86
2020/12/21 01:35:13;;;;;;;4.50;4.00;;;7.70;99.90;;;;;;5116382;28;20544;-85
2020/12/21 01:37:38;;;;;;;5.67;4.47;;;7.60;99.90;;;;;;5116535;28;20181;-86
2020/12/21 01:40:05;;;;;;;4.23;3.90;;;7.50;99.90;;;;;;5116361;28;20178;-84
2020/12/21 01:42:31;;;;;;;4.23;3.90;;;7.50;99.90;;;;;;5116135;28;20212;-84
2020/12/21 01:44:56;;;;;;;4.33;4.03;;;7.40;99.90;;;;;;5116173;28;20823;-85
2020/12/21 01:47:22;;;;;;;3.60;3.30;;;7.40;99.90;;;;;;5115001;28;20174;-86
2020/12/21 01:49:49;;;;;;;4.03;3.67;;;7.30;99.90;;;;;;5114996;28;20518;-85
2020/12/21 01:52:17;;;;;;;4.40;4.00;;;7.30;99.90;;;;;;5114667;28;20467;-85
2020/12/21 01:54:47;;;;;;;7.10;3.67;;;7.20;99.90;;;;;;5115953;28;20420;-85
2020/12/21 01:57:13;;;;;;;3.73;3.40;;;7.20;99.90;;;;;;5114834;28;20415;-85
2020/12/21 01:59:39;;;;;;;4.67;3.53;;;7.10;99.90;;;;;;5114404;28;20933;-85
2020/12/21 02:02:05;;;;;;;3.50;3.30;;;7.10;99.90;;;;;;5115838;28;20922;-85
2020/12/21 02:04:31;;;;;;;3.80;3.47;;;7.10;99.90;;;;;;5115590;28;20424;-84
2020/12/21 02:07:00;;;;;;;4.03;3.73;;;7.00;99.90;;;;;;5114770;28;20647;-85
2020/12/21 02:09:27;;;;;;;4.00;3.70;;;7.10;99.90;;;;;;5115843;28;20174;-86
2020/12/21 02:11:54;;;;;;;4.70;4.30;;;7.10;99.90;;;;;;5115786;28;20412;-86
2020/12/21 02:14:20;;;;;;;4.00;3.50;;;7.10;99.90;;;;;;5114607;28;20432;-85
2020/12/21 02:16:45;;;;;;;3.50;3.20;;;7.10;99.90;;;;;;5116021;28;20430;-85
2020/12/21 02:19:11;;;;;;;3.83;3.40;;;7.10;99.90;;;;;;5115292;28;20411;-84
2020/12/21 02:21:37;;;;;;;4.87;4.00;;;7.10;99.90;;;;;;5115420;28;20166;-85
2020/12/21 02:24:02;;;;;;;3.73;3.43;;;7.10;99.90;;;;;;5115592;28;20174;-84
2020/12/21 02:26:28;;;;;;;3.77;3.47;;;7.10;99.90;;;;;;5115168;28;20486;-85
2020/12/21 02:28:56;;;;;;;4.20;3.80;;;7.10;99.90;;;;;;5115110;28;20315;-84
2020/12/21 02:31:22;;;;;;;4.90;3.70;;;7.10;99.90;;;;;;5113838;28;20220;-86
2020/12/21 02:33:47;;;;;;;4.30;3.90;;;7.20;99.90;;;;;;5113550;28;20887;-85
2020/12/21 02:36:13;;;;;;;4.57;3.77;;;7.10;99.90;;;;;;5112723;28;20419;-85
2020/12/21 02:38:40;;;;;;;6.43;4.13;;;7.10;99.90;;;;;;5113707;28;20319;-85
2020/12/21 02:41:06;;;;;;;5.67;4.80;;;7.10;99.90;;;;;;5115108;28;20174;-85
2020/12/21 02:43:31;;;;;;;4.20;3.90;;;7.10;99.90;;;;;;5113508;28;20953;-86
2020/12/21 02:45:57;;;;;;;3.73;3.43;;;7.00;99.90;;;;;;5113397;28;20428;-85
2020/12/21 02:48:23;;;;;;;3.57;3.27;;;7.00;99.90;;;;;;5113437;28;20181;-85
2020/12/21 02:50:48;;;;;;;3.77;3.37;;;7.00;99.90;;;;;;5113476;28;20687;-84
2020/12/21 02:53:15;;;;;;;5.80;3.60;;;7.00;99.90;;;;;;5113504;28;20214;-85
2020/12/21 02:55:41;;;;;;;3.63;3.17;;;7.00;99.90;;;;;;5113503;28;20174;-85
2020/12/21 02:58:07;;;;;;;4.03;3.60;;;7.00;99.90;;;;;;5114840;28;20416;-85
2020/12/21 03:00:36;;;;;;;5.20;3.70;;;7.00;99.90;;;;;;5113104;28;20181;-85
2020/12/21 03:03:03;;;;;;;4.00;3.70;;;6.90;99.90;;;;;;5114731;28;20174;-85
2020/12/21 03:05:30;;;;;;;4.30;3.90;;;6.90;99.90;;;;;;5114785;28;20408;-86
2020/12/21 03:07:56;;;;;;;5.60;3.63;;;6.80;99.90;;;;;;5113646;28;20424;-84
2020/12/21 03:10:22;;;;;;;3.83;3.53;;;6.70;99.90;;;;;;5113034;28;20412;-85
2020/12/21 03:12:47;;;;;;;7.40;4.37;;;6.70;99.90;;;;;;5114184;28;20508;-85
2020/12/21 03:15:13;;;;;;;4.60;3.53;;;6.60;99.90;;;;;;5114298;28;20177;-85
2020/12/21 03:17:38;;;;;;;6.53;4.10;;;6.50;99.90;;;;;;5114369;28;20181;-84
2020/12/21 03:20:04;;;;;;;3.23;3.00;;;6.50;99.90;;;;;;5115501;28;20186;-84
2020/12/21 03:22:30;;;;;;;3.87;3.27;;;6.50;99.90;;;;;;5114765;28;20170;-85
2020/12/21 03:24:57;;;;;;;4.10;3.70;;;6.60;99.90;;;;;;5114047;28;20497;-85
2020/12/21 03:27:23;;;;;;;4.27;3.50;;;6.60;99.90;;;;;;5113260;28;20181;-85
2020/12/21 03:29:49;;;;;;;4.53;3.53;;;6.60;99.90;;;;;;5114403;28;20443;-85
2020/12/21 03:32:14;;;;;;;4.57;3.57;;;6.60;99.90;;;;;;5114154;28;20836;-85
2020/12/21 03:34:40;;;;;;;3.90;3.30;;;6.50;99.90;;;;;;5112948;28;20170;-85
2020/12/21 03:37:06;;;;;;;4.77;3.00;;;6.50;99.90;;;;;;5114132;28;20216;-85
2020/12/21 03:39:31;;;;;;;4.43;3.50;;;6.50;99.90;;;;;;5114022;28;20170;-84
2020/12/21 03:41:57;;;;;;;4.33;3.40;;;6.50;99.90;;;;;;5113733;28;20177;-85
2020/12/21 03:44:23;;;;;;;3.30;3.00;;;6.50;99.90;;;;;;5114003;28;20178;-85
2020/12/21 03:46:48;;;;;;;4.30;3.30;;;6.50;99.90;;;;;;5113708;28;20198;-85
2020/12/21 03:49:14;;;;;;;3.70;3.27;;;6.50;99.90;;;;;;5113572;28;20447;-84
2020/12/21 03:51:40;;;;;;;4.23;3.23;;;6.50;99.90;;;;;;5112389;28;20170;-85
2020/12/21 03:54:05;;;;;;;4.77;3.07;;;6.50;99.90;;;;;;5113632;28;20209;-86
2020/12/21 03:56:31;;;;;;;4.30;3.37;;;6.50;99.90;;;;;;5113719;28;20625;-85
2020/12/21 03:58:56;;;;;;;5.10;3.80;;;6.50;99.90;;;;;;5112429;28;20269;-83
2020/12/21 04:01:22;;;;;;;4.23;2.80;;;6.50;99.90;;;;;;5114933;28;20185;-84
2020/12/21 04:03:47;;;;;;;3.30;3.00;;;6.40;99.90;;;;;;5112617;28;20178;-84
2020/12/21 04:06:13;;;;;;;5.40;3.10;;;6.40;99.90;;;;;;5112474;28;20181;-85
2020/12/21 04:08:38;;;;;;;3.57;3.33;;;6.40;99.90;;;;;;5112176;28;20166;-85
2020/12/21 04:11:06;;;;;;;4.47;4.07;;;6.40;99.90;;;;;;5113489;28;20170;-85
2020/12/21 04:13:32;;;;;;;4.17;3.87;;;6.40;99.90;;;;;;5111791;28;20239;-85
2020/12/21 04:15:57;;;;;;;4.30;3.60;;;6.40;99.90;;;;;;5113271;28;20857;-85
2020/12/21 04:18:23;;;;;;;6.70;6.00;;;6.40;99.90;;;;;;5112054;28;20177;-85
2020/12/21 04:20:48;;;;;;;4.30;3.27;;;6.40;99.90;;;;;;5113451;28;20203;-85
2020/12/21 04:23:14;;;;;;;8.30;5.77;;;6.40;99.90;;;;;;5112557;28;20174;-84
2020/12/21 04:25:40;;;;;;;4.27;3.53;;;6.40;99.90;;;;;;5112175;28;20170;-85
2020/12/21 04:28:06;;;;;;;8.37;4.77;;;6.50;99.90;;;;;;5113314;28;20166;-84
2020/12/21 04:30:31;;;;;;;11.70;5.43;;;6.50;99.90;;;;;;5113429;28;20174;-84
2020/12/21 04:32:57;;;;;;;5.57;4.70;;;6.60;99.90;;;;;;5113497;28;20262;-85
2020/12/21 04:35:22;;;;;;;8.10;4.03;;;6.60;99.90;;;;;;5113742;28;20258;-84
2020/12/21 04:37:48;;;;;;;3.40;2.90;;;6.60;99.90;;;;;;5114052;28;20213;-84
2020/12/21 04:40:13;;;;;;;3.50;2.93;;;6.70;99.90;;;;;;5112036;28;20984;-81
2020/12/21 04:42:47;;;;;;;3.33;3.00;;;6.60;99.90;;;;;;5113394;28;20181;-85
2020/12/21 04:45:12;;;;;;;4.00;3.60;;;6.70;99.90;;;;;;5113282;28;20186;-85
2020/12/21 04:47:41;;;;;;;3.20;2.90;;;6.80;99.90;;;;;;5113597;28;20498;-85
2020/12/21 04:50:10;;;;;;;3.13;2.83;;;6.80;99.90;;;;;;5113322;28;20525;-85
2020/12/21 04:52:50;;;;;;;4.67;4.10;;;6.80;99.90;;;;;;5111724;28;20982;-84
2020/12/21 04:55:19;;;;;;;4.47;3.57;;;6.90;99.90;;;;;;5111744;28;20533;-84
2020/12/21 04:57:58;;;;;;;3.27;2.97;;;6.80;99.90;;;;;;5112380;28;20910;-85
2020/12/21 05:00:26;;;;;;;3.40;3.07;;;6.90;99.90;;;;;;5116378;28;20407;-85
2020/12/21 05:02:52;;;;;;;4.70;3.80;;;6.90;99.90;;;;;;5115791;28;20426;-85
2020/12/21 05:05:47;;;;;;;4.13;3.20;;;6.90;99.90;;;;;;5115683;28;20498;-85
2020/12/21 05:08:23;;;;;;;4.27;3.03;;;6.80;99.90;;;;;;5086972;28;20459;-85
2020/12/21 05:11:01;;;;;;;4.53;3.77;;;6.80;99.90;;;;;;5094969;28;20408;-84
2020/12/21 05:13:27;;;;;;;3.47;2.67;;;6.90;99.90;;;;;;5095970;28;20514;-84
2020/12/21 05:15:57;;;;;;;4.90;3.03;;;6.80;99.90;;;;;;5094412;28;20423;-85
2020/12/21 05:18:23;;;;;;;5.30;3.40;;;7.00;99.90;;;;;;5096539;28;20419;-84
2020/12/21 05:21:04;;;;;;;7.73;3.37;;;6.90;99.90;;;;;;5096139;28;20412;-85
2020/12/21 05:23:31;;;;;;;3.33;3.00;;;6.90;99.90;;;;;;5096088;28;20760;-84
2020/12/21 05:26:08;;;;;;;5.63;3.33;;;6.90;99.90;;;;;;5096272;28;20899;-85
2020/12/21 05:28:38;;;;;;;4.00;3.37;;;6.90;99.90;;;;;;5096998;28;20511;-84
2020/12/21 05:31:05;;;;;;;3.60;2.63;;;6.90;99.90;;;;;;5096095;28;20435;-85
2020/12/21 05:33:31;;;;;;;2.47;2.27;;;6.90;99.90;;;;;;5095963;28;20467;-84
2020/12/21 05:36:05;;;;;;;3.40;2.67;;;7.00;99.90;;;;;;5094871;28;20416;-85
2020/12/21 05:38:31;;;;;;;2.10;1.97;;;7.00;99.90;;;;;;5097516;28;20512;-84
2020/12/21 05:41:12;;;;;;;1.70;1.60;;;7.00;99.90;;;;;;5097044;28;20437;-84
2020/12/21 05:43:38;;;;;;;6.10;3.30;;;6.90;99.90;;;;;;5094885;28;21262;-84
2020/12/21 05:46:08;;;;;;;5.77;5.37;;;6.90;99.90;;;;;;5096149;28;20413;-85
2020/12/21 05:48:37;;;;;;;3.53;3.20;;;6.90;99.90;;;;;;5096051;28;20515;-86
2020/12/21 05:51:04;;;;;;;4.30;3.40;;;6.90;99.90;;;;;;5096031;28;20416;-86
2020/12/21 05:53:35;;;;;;;3.33;3.03;;;6.90;99.90;;;;;;5095355;28;20464;-85
2020/12/21 05:56:04;;;;;;;6.33;3.70;;;6.90;99.90;;;;;;5096570;28;20771;-85
2020/12/21 05:58:32;;;;;;;8.40;4.77;;;6.90;99.90;;;;;;5095804;28;20424;-84
2020/12/21 06:01:03;;;;;;;6.43;5.93;;;6.90;99.90;;;;;;5095804;28;20504;-85
2020/12/21 06:03:48;;;;;;;6.90;3.80;;;6.90;99.90;;;;;;5095986;28;20470;-86
2020/12/21 06:06:15;;;;;;;4.33;3.70;;;6.90;99.90;;;;;;5097709;28;20422;-88
2020/12/21 06:08:41;;;;;;;3.97;3.53;;;6.90;99.90;;;;;;5096865;28;20466;-86
2020/12/21 06:11:17;;;;;;;3.93;3.57;;;6.90;99.90;;;;;;5096045;28;20444;-84
2020/12/21 06:13:50;;;;;;;3.90;2.93;;;6.90;99.90;;;;;;5095055;28;20507;-85
2020/12/21 06:16:17;;;;;;;3.40;3.10;;;7.00;99.90;;;;;;5094499;28;20783;-85
2020/12/21 06:18:54;;;;;;;4.20;3.27;;;7.00;99.90;;;;;;5096107;28;20424;-85
2020/12/21 06:21:26;;;;;;;7.13;3.43;;;7.00;99.90;;;;;;5095368;28;20411;-86
2020/12/21 06:23:52;;;;;;;4.50;3.70;;;7.00;99.90;;;;;;5094027;28;20427;-85
2020/12/21 06:26:18;;;;;;;3.57;3.00;;;7.00;99.90;;;;;;5095132;28;20409;-87
2020/12/21 06:28:44;;;;;;;4.13;3.50;;;7.00;99.90;;;;;;5096751;28;20701;-76
2020/12/21 06:31:18;;;;;;;5.77;4.53;;;6.90;99.90;;;;;;5093964;28;20175;-86
2020/12/21 06:33:45;;;;;;;3.57;3.13;;;7.00;99.90;;;;;;5095006;28;20494;-84
2020/12/21 06:36:11;;;;;;;3.70;3.33;;;7.00;99.90;;;;;;5095426;28;20409;-87
2020/12/21 06:38:45;;;;;;;4.50;3.40;;;7.00;99.90;;;;;;5093995;28;20455;-85
2020/12/21 06:41:32;;;;;;;7.33;3.70;;;6.90;99.90;;;;;;5095035;28;20919;-84
2020/12/21 06:44:03;;;;;;;3.50;3.17;;;7.00;99.90;;;;;;5092970;28;20424;-83
2020/12/21 06:46:30;;;;;;;7.73;3.90;;;7.00;99.90;;;;;;5097914;27;20463;-85
2020/12/21 06:49:09;;;;;;;3.20;3.00;;;7.00;99.90;;;;;;5111444;28;20423;-85
2020/12/21 06:51:38;;;;;;;6.67;6.07;;;7.00;99.90;;;;;;5114364;28;20435;-86
2020/12/21 06:54:05;;;;;;;3.80;3.40;;;7.10;99.90;;;;;;5113774;28;20475;-83
2020/12/21 06:56:30;;;;;;;6.03;5.50;;;7.10;99.90;;;;;;5113600;27;20447;-86
2020/12/21 06:58:57;;;;;;;4.50;4.10;;;7.00;99.90;;;;;;5115995;27;20496;-84
2020/12/21 07:01:25;;;;;;;4.67;4.27;;;7.00;99.90;;;;;;5127096;27;20411;-85
2020/12/21 07:03:51;;;;;;;6.13;5.10;;;7.00;99.90;;;;;;5132834;27;20450;-86
2020/12/21 07:06:17;;;;;;;6.93;4.70;;;6.90;99.90;;;;;;5119958;27;20570;-85
2020/12/21 07:08:43;;;;;;;5.03;4.53;;;6.90;99.90;;;;;;5134104;27;20493;-87
2020/12/21 07:11:20;;;;;;;4.63;4.03;;;6.90;99.90;;;;;;5134800;27;20935;-85
2020/12/21 07:13:47;;;;;;;8.50;7.70;;;6.80;99.90;;;;;;5132728;27;20568;-85
2020/12/21 07:16:15;;;;;;;4.07;3.70;;;6.90;99.90;;;;;;5132664;27;20506;-84
2020/12/21 07:18:41;;;;;;;4.27;3.87;;;6.90;99.90;;;;;;5114363;27;20423;-85
2020/12/21 07:21:08;;;;;;;5.27;4.77;;;6.90;99.90;;;;;;5112285;28;20547;-84
2020/12/21 07:23:34;;;;;;;7.33;4.50;;;6.80;99.90;;;;;;5111652;28;20221;-84
2020/12/21 07:26:00;;;;;;;4.63;3.57;;;6.90;99.90;;;;;;5112244;28;20462;-85
2020/12/21 07:28:30;;;;;;;5.47;4.47;;;6.90;99.90;;;;;;5113300;28;20492;-83
2020/12/21 07:31:08;;;;;;;9.47;5.77;;;6.90;99.90;;;;;;5113478;28;20474;-84
2020/12/21 07:33:34;;;;;;;4.27;3.87;;;6.80;99.90;;;;;;5113015;28;20503;-84
2020/12/21 07:36:00;;;;;;;5.60;4.60;;;6.90;99.90;;;;;;5113245;28;20411;-84
2020/12/21 07:38:26;;;;;;;8.97;8.23;;;6.80;99.90;;;;;;5113389;28;20507;-85
2020/12/21 07:40:54;;;;;;;4.20;3.80;;;6.90;99.90;;;;;;5113008;28;20200;-84
2020/12/21 07:43:29;;;;;;;4.30;3.90;;;6.90;99.90;;;;;;5113185;28;20431;-84
2020/12/21 07:46:03;;;;;;;5.47;4.63;;;6.90;99.90;;;;;;5112827;28;20435;-86
2020/12/21 07:48:31;;;;;;;6.53;4.13;;;6.90;99.90;;;;;;5111711;28;20490;-86
2020/12/21 07:51:00;;;;;;;6.40;3.70;;;7.00;99.90;;;;;;5112802;28;20408;-85
2020/12/21 07:53:26;;;;;;;4.50;3.83;;;6.90;99.90;;;;;;5112851;28;20499;-82
2020/12/21 07:55:56;;;;;;;4.50;3.17;;;7.00;99.90;;;;;;5112570;28;20427;-84
2020/12/21 07:58:22;;;;;;;4.50;4.00;;;7.00;99.90;;;;;;5112792;28;20435;-85
2020/12/21 08:00:58;;;;;;;6.43;3.60;;;7.00;99.90;;;;;;5113044;28;20408;-84
2020/12/21 08:03:25;;;;;;;5.23;4.40;;;7.10;99.90;;;;;;5113507;28;20185;-85
2020/12/21 08:06:07;;;;;;;4.90;4.03;;;7.10;99.90;;;;;;5112361;28;20427;-84
2020/12/21 08:08:32;;;;;;;5.23;4.70;;;7.00;99.90;;;;;;5107595;28;20948;-84
2020/12/21 08:10:58;;;;;;;5.23;4.73;;;7.00;99.90;;;;;;5111870;28;20416;-82
2020/12/21 08:13:24;;;;;;;6.00;4.97;;;7.00;99.90;;;;;;5112202;28;20221;-85
2020/12/21 08:15:50;;;;;;;5.30;4.90;;;7.00;99.90;;;;;;5092498;28;20401;-84
2020/12/21 08:18:15;;;;;;;5.53;5.10;;;7.10;99.90;;;;;;5092895;28;20171;-83
2020/12/21 08:20:51;;;;;;;5.40;4.53;;;7.10;99.90;;;;;;5092360;28;20452;-84
2020/12/21 08:23:30;;;;;;;5.27;3.97;;;6.90;99.90;;;;;;5095054;28;20264;-84
2020/12/21 08:25:56;;;;;;;5.33;4.00;;;7.00;99.90;;;;;;5112115;28;20411;-84
2020/12/21 08:28:34;;;;;;;11.57;4.80;;;7.00;99.90;;;;;;5112497;28;20419;-84
2020/12/21 08:31:08;;;;;;;4.90;4.40;;;7.00;99.90;;;;;;5111992;28;20416;-84
2020/12/21 08:33:38;;;;;;;6.27;4.50;;;7.00;99.90;;;;;;5110342;27;20556;-86
2020/12/21 08:36:22;;;;;;;6.43;4.57;;;7.00;99.90;;;;;;5129886;27;20418;-84
2020/12/21 08:38:49;;;;;;;9.17;5.10;;;7.10;99.90;;;;;;5131183;27;20427;-84
2020/12/21 08:41:15;;;;;;;5.97;4.60;;;7.00;99.90;;;;;;5117149;28;20441;-83
2020/12/21 08:43:40;;;;;;;7.20;5.03;;;7.00;99.90;;;;;;5115208;28;20505;-86
2020/12/21 08:46:11;;;;;;;5.73;4.57;;;7.10;99.90;;;;;;5115095;28;20213;-84
2020/12/21 08:48:42;;;;;;;6.90;4.23;;;7.10;99.90;;;;;;5117506;27;20433;-83
2020/12/21 08:51:08;;;;;;;5.97;5.23;;;7.10;99.90;;;;;;5125616;27;20411;-83
2020/12/21 08:53:34;;;;;;;7.00;4.43;;;7.20;99.90;;;;;;5116771;28;20474;-85
2020/12/21 08:56:08;;;;;;;7.93;4.00;;;7.20;99.90;;;;;;5116159;28;20407;-84
2020/12/21 08:58:34;;;;;;;6.70;5.80;;;7.20;99.90;;;;;;5115141;28;20196;-84
2020/12/21 09:01:03;;;;;;;5.83;4.77;;;7.20;99.90;;;;;;5116010;28;20428;-84
2020/12/21 09:03:29;;;;;;;6.13;5.53;;;7.20;99.90;;;;;;5127847;27;20514;-84
2020/12/21 09:05:56;;;;;;;11.73;10.00;;;7.30;99.90;;;;;;5135753;27;20995;-85
2020/12/21 09:08:22;;;;;;;21.67;16.37;;;7.30;99.90;;;;;;5169638;27;20173;-85
2020/12/21 09:10:48;;;;;;;7.83;7.20;;;7.30;99.90;;;;;;5136539;27;20421;-84
2020/12/21 09:13:13;;;;;;;8.43;6.17;;;7.30;99.90;;;;;;5135534;27;20886;-85
2020/12/21 09:15:39;;;;;;;6.23;5.70;;;7.30;99.90;;;;;;5137233;27;20169;-83
2020/12/21 09:18:05;;;;;;;6.70;5.93;;;7.40;99.90;;;;;;5137237;27;20208;-85
2020/12/21 09:20:31;;;;;;;6.43;5.10;;;7.40;99.90;;;;;;5136457;27;20469;-84
2020/12/21 09:22:57;;;;;;;5.43;4.93;;;7.50;99.90;;;;;;5136245;27;20169;-85
2020/12/21 09:25:22;;;;;;;4.50;4.10;;;7.50;99.90;;;;;;5136110;27;20406;-85
2020/12/21 09:27:48;;;;;;;5.00;4.60;;;7.50;99.90;;;;;;5123739;27;20451;-85
2020/12/21 09:30:14;;;;;;;5.90;4.57;;;7.50;99.90;;;;;;5114146;28;20188;-85
2020/12/21 09:32:39;;;;;;;7.60;6.10;;;7.50;99.90;;;;;;5115887;28;20202;-85
2020/12/21 09:35:05;;;;;;;8.80;5.90;;;7.70;99.90;;;;;;5115115;28;20181;-84
2020/12/21 09:37:31;;;;;;;8.13;7.43;;;7.60;99.90;;;;;;5114945;28;20178;-82
2020/12/21 09:39:56;;;;;;;5.87;4.63;;;7.70;99.90;;;;;;5118366;28;20181;-82
2020/12/21 09:42:22;;;;;;;9.40;8.70;;;7.60;99.90;;;;;;5115559;28;20177;-83
2020/12/21 09:44:50;;;;;;;6.07;4.70;;;7.70;99.90;;;;;;5115299;28;20629;-85
2020/12/21 09:47:16;;;;;;;4.30;4.00;;;7.70;99.90;;;;;;5115401;28;20599;-85
2020/12/21 09:49:41;;;;;;;4.43;4.03;;;7.70;99.90;;;;;;5115248;28;20412;-85
2020/12/21 09:52:07;;;;;;;6.77;3.93;;;7.70;99.90;;;;;;5114925;28;20423;-85
2020/12/21 09:54:32;;;;;;;5.93;5.33;;;7.70;99.90;;;;;;5115270;28;20165;-84
2020/12/21 09:56:58;;;;;;;6.13;4.10;;;7.70;99.90;;;;;;5113907;28;20513;-85
2020/12/21 09:59:23;;;;;;;5.77;4.43;;;7.80;99.90;;;;;;5115108;28;20185;-85
2020/12/21 10:01:50;;;;;;;5.67;4.57;;;7.80;99.90;;;;;;5114688;28;20227;-85
2020/12/21 10:04:15;;;;;;;7.30;4.77;;;7.80;99.90;;;;;;5114813;28;20709;-85
2020/12/21 10:06:47;;;;;;;8.30;4.90;;;7.80;99.90;;;;;;5114852;28;20506;-85
2020/12/21 10:09:12;;;;;;;4.23;3.93;;;7.90;99.90;;;;;;5114823;28;20257;-84
2020/12/21 10:11:38;;;;;;;5.80;4.90;;;8.00;99.90;;;;;;5113572;28;20963;-85
2020/12/21 10:14:03;;;;;;;5.50;4.27;;;7.90;99.90;;;;;;5110803;27;20221;-85
2020/12/21 10:16:29;;;;;;;7.50;4.90;;;7.90;99.90;;;;;;5093074;28;20217;-85
2020/12/21 10:18:54;;;;;;;6.63;4.80;;;7.90;99.90;;;;;;5094566;28;20182;-85
2020/12/21 10:21:20;;;;;;;4.80;3.60;;;7.90;99.90;;;;;;5092957;28;20561;-82
2020/12/21 10:23:46;;;;;;;4.73;4.27;;;8.00;99.90;;;;;;5093100;28;20582;-85
2020/12/21 10:26:11;;;;;;;5.30;4.27;;;8.00;99.90;;;;;;5094897;28;20231;-86
2020/12/21 10:28:37;;;;;;;4.17;3.87;;;8.00;99.90;;;;;;5111897;28;20185;-84
2020/12/21 10:31:02;;;;;;;4.30;3.90;;;7.90;99.90;;;;;;5115159;28;20510;-84
2020/12/21 10:33:28;;;;;;;4.70;4.30;;;8.00;99.90;;;;;;5114790;28;20745;-83
2020/12/21 10:35:53;;;;;;;6.27;5.03;;;7.90;99.90;;;;;;5114423;28;20208;-87
2020/12/21 10:38:19;;;;;;;5.40;4.90;;;8.00;99.90;;;;;;5114700;28;20185;-84
2020/12/21 10:40:45;;;;;;;4.00;3.70;;;8.00;99.90;;;;;;5113020;28;20181;-85
2020/12/21 10:43:11;;;;;;;4.70;3.90;;;8.10;99.90;;;;;;5148055;27;20481;-83
2020/12/21 10:45:38;;;;;;;4.10;3.80;;;8.10;99.90;;;;;;5113462;28;20509;-84
2020/12/21 10:48:04;;;;;;;4.20;3.40;;;8.00;99.90;;;;;;5113526;28;20181;-86
2020/12/21 10:50:30;;;;;;;4.67;3.67;;;8.10;99.90;;;;;;5114877;28;20416;-82
2020/12/21 10:52:55;;;;;;;6.10;3.60;;;8.10;99.90;;;;;;5096092;28;20465;-85
2020/12/21 10:55:21;;;;;;;4.53;3.70;;;8.00;99.90;;;;;;5093735;28;20170;-85
2020/12/21 10:57:47;;;;;;;4.13;3.80;;;8.10;99.90;;;;;;5093421;28;20174;-84
2020/12/21 11:00:12;;;;;;;3.80;3.00;;;8.10;99.90;;;;;;5092843;28;20669;-82
2020/12/21 11:02:38;;;;;;;4.70;4.30;;;8.10;99.90;;;;;;5093360;28;20254;-82
2020/12/21 11:05:04;;;;;;;3.70;3.20;;;8.10;99.90;;;;;;5093492;28;20405;-84
2020/12/21 11:07:31;;;;;;;5.40;3.57;;;8.10;99.90;;;;;;5092569;28;20210;-82
2020/12/21 11:09:57;;;;;;;6.10;3.43;;;8.20;99.90;;;;;;5093286;28;20217;-83
2020/12/21 11:12:23;;;;;;;17.53;4.87;;;8.20;99.90;;;;;;5093505;28;20507;-84
2020/12/21 11:14:50;;;;;;;6.10;3.80;;;8.30;99.90;;;;;;5092930;28;20182;-83
2020/12/21 11:17:15;;;;;;;7.00;3.90;;;8.30;99.90;;;;;;5093574;28;20397;-84
2020/12/21 11:19:41;;;;;;;5.87;3.57;;;8.30;99.90;;;;;;5093290;28;20431;-85
2020/12/21 11:22:07;;;;;;;4.40;4.00;;;8.50;99.90;;;;;;5125908;27;20804;-83
2020/12/21 11:24:32;;;;;;;5.07;4.57;;;8.40;99.90;;;;;;5125777;27;20273;-88
2020/12/21 11:26:59;;;;;;;4.23;3.80;;;8.50;99.90;;;;;;5131740;27;20174;-85
2020/12/21 11:29:24;;;;;;;4.83;4.33;;;8.40;99.90;;;;;;5112587;28;20182;-82
2020/12/21 11:31:50;;;;;;;4.67;4.27;;;8.40;99.90;;;;;;5113533;28;20415;-82
2020/12/21 11:34:16;;;;;;;16.97;6.37;;;8.50;99.90;;;;;;5114896;28;20300;-83
2020/12/21 11:36:43;;;;;;;5.73;4.60;;;8.60;99.90;;;;;;5113614;28;20173;-84
2020/12/21 11:39:09;;;;;;;7.83;4.93;;;8.70;99.90;;;;;;5112955;28;20472;-84
2020/12/21 11:41:35;;;;;;;7.70;4.53;;;8.50;99.90;;;;;;5110951;28;20412;-84
2020/12/21 11:44:01;;;;;;;4.73;4.33;;;8.40;99.90;;;;;;5093319;28;20527;-83
2020/12/21 11:46:37;;;;;;;4.53;3.63;;;8.40;99.90;;;;;;5112884;28;20636;-84
2020/12/21 11:49:04;;;;;;;4.00;3.70;;;8.30;99.90;;;;;;5119860;27;20184;-82
2020/12/21 11:51:30;;;;;;;6.73;4.03;;;8.40;99.90;;;;;;5131006;27;20813;-86
2020/12/21 11:53:55;;;;;;;5.10;4.63;;;8.30;99.90;;;;;;5114403;28;20475;-83
2020/12/21 11:56:21;;;;;;;4.10;3.80;;;8.40;99.90;;;;;;5113697;28;20506;-83
2020/12/21 11:58:47;;;;;;;5.07;4.63;;;8.40;99.90;;;;;;5114611;28;20185;-85
2020/12/21 12:01:15;;;;;;;6.53;5.43;;;8.40;99.90;;;;;;5113000;28;20416;-84
2020/12/21 12:03:41;;;;;;;6.43;4.80;;;8.50;99.90;;;;;;5112495;28;20451;-83
2020/12/21 12:06:06;;;;;;;20.73;10.00;;;8.50;99.90;;;;;;5113523;28;20415;-80
2020/12/21 12:08:33;;;;;;;7.10;6.37;;;8.60;99.90;;;;;;5113367;28;20181;-81
2020/12/21 12:10:59;;;;;;;9.10;8.00;;;8.60;99.90;;;;;;5112688;28;20216;-84
2020/12/21 12:13:24;;;;;;;7.60;6.90;;;8.60;99.90;;;;;;5114070;28;20809;-84
2020/12/21 12:15:51;;;;;;;7.63;4.77;;;8.60;99.90;;;;;;5114489;28;20420;-85
2020/12/21 12:18:16;;;;;;;5.50;5.00;;;8.70;99.90;;;;;;5112374;28;20174;-84
2020/12/21 12:20:42;;;;;;;7.70;5.50;;;8.60;99.90;;;;;;5112322;28;20503;-81
2020/12/21 12:23:08;;;;;;;6.37;5.33;;;8.60;99.90;;;;;;5113542;28;20271;-86
2020/12/21 12:25:34;;;;;;;6.23;5.63;;;8.60;99.90;;;;;;5113733;28;20189;-84
2020/12/21 12:28:00;;;;;;;5.23;4.73;;;8.60;99.90;;;;;;5112666;28;20614;-84
2020/12/21 12:30:26;;;;;;;7.00;4.97;;;8.50;99.90;;;;;;5113277;28;20260;-83
2020/12/21 12:32:59;;;;;;;5.50;5.03;;;8.60;99.90;;;;;;5112971;28;20463;-83
2020/12/21 12:35:24;;;;;;;5.97;5.47;;;8.70;99.90;;;;;;5112738;28;20178;-86
2020/12/21 12:37:50;;;;;;;10.17;9.07;;;8.80;99.90;;;;;;5115094;28;20778;-86
2020/12/21 12:40:15;;;;;;;14.57;12.90;;;8.90;99.90;;;;;;5113697;28;20180;-84
2020/12/21 12:42:41;;;;;;;33.33;25.10;;;9.00;99.90;;;;;;5113995;28;20170;-84
2020/12/21 12:45:07;;;;;;;18.67;13.57;;;9.10;99.90;;;;;;5112388;28;20181;-83
2020/12/21 12:47:32;;;;;;;9.17;8.17;;;9.10;99.90;;;;;;5114804;28;20178;-85
2020/12/21 12:49:58;;;;;;;6.33;5.73;;;9.10;99.90;;;;;;5114132;28;20181;-82
2020/12/21 12:52:24;;;;;;;15.27;13.13;;;9.10;99.90;;;;;;5112685;28;20208;-85
2020/12/21 12:54:52;;;;;;;5.20;4.67;;;9.20;99.90;;;;;;5100927;28;20193;-81
2020/12/21 12:57:18;;;;;;;5.13;4.70;;;9.20;99.90;;;;;;5105065;28;20183;-83